createdAt,value
2022-09-15T00:02:52.417Z,100.00
2022-09-15T00:07:55.513Z,100.00
2022-09-15T00:13:01.530Z,100.00
2022-09-15T00:18:05.176Z,100.00
2022-09-15T00:23:08.260Z,100.00
2022-09-15T00:28:13.059Z,100.00
2022-09-15T00:33:18.274Z,100.00
2022-09-15T00:38:22.494Z,100.00
2022-09-15T00:43:47.505Z,100.00
2022-09-15T00:48:57.314Z,100.00
2022-09-15T00:54:03.328Z,100.00
2022-09-15T00:59:12.320Z,100.00
2022-09-15T01:04:16.651Z,100.00
2022-09-15T01:09:23.746Z,100.00
2022-09-15T01:14:28.478Z,100.00
2022-09-15T01:20:08.141Z,100.00
2022-09-15T01:25:27.321Z,100.00
2022-09-15T01:30:38.725Z,100.00
2022-09-15T01:36:01.083Z,100.00
2022-09-15T01:41:22.601Z,100.00
2022-09-15T01:46:37.760Z,100.00
2022-09-15T01:51:47.372Z,100.00
2022-09-15T01:57:01.327Z,100.00
2022-09-15T02:02:22.168Z,100.00
2022-09-15T02:07:39.603Z,100.00
2022-09-15T02:13:08.664Z,100.00
2022-09-15T02:18:28.131Z,100.00
2022-09-15T02:23:44.052Z,100.00
2022-09-15T02:28:53.391Z,100.00
2022-09-15T02:34:09.887Z,100.00
2022-09-15T02:39:24.593Z,100.00
2022-09-15T02:44:42.419Z,100.00
2022-09-15T02:49:54.341Z,100.00
2022-09-15T02:55:04.652Z,100.00
2022-09-15T03:00:22.155Z,100.00
2022-09-15T03:05:35.726Z,100.00
2022-09-15T03:10:42.600Z,100.00
2022-09-15T03:15:54.804Z,100.00
2022-09-15T03:21:08.620Z,100.00
2022-09-15T03:26:31.861Z,100.00
2022-09-15T03:31:40.937Z,100.00
2022-09-15T03:36:51.541Z,100.00
2022-09-15T03:41:57.558Z,100.00
2022-09-15T03:47:09.013Z,100.00
2022-09-15T03:52:19.767Z,100.00
2022-09-15T03:57:33.681Z,100.00
2022-09-15T04:02:45.150Z,100.00
2022-09-15T04:08:09.841Z,100.00
2022-09-15T04:13:27.967Z,100.00
2022-09-15T04:18:44.884Z,100.00
2022-09-15T04:23:56.490Z,100.00
2022-09-15T04:29:11.249Z,100.00
2022-09-15T04:34:17.688Z,100.00
2022-09-15T04:39:27.251Z,100.00
2022-09-15T04:44:37.945Z,100.00
2022-09-15T04:49:46.508Z,100.00
2022-09-15T04:54:53.886Z,100.00
2022-09-15T05:00:01.329Z,100.00
2022-09-15T05:05:08.006Z,100.00
2022-09-15T05:10:18.807Z,100.00
2022-09-15T05:15:25.281Z,100.00
2022-09-15T05:20:31.790Z,100.00
2022-09-15T05:25:45.427Z,100.00
2022-09-15T05:30:49.522Z,100.00
2022-09-15T05:35:57.597Z,100.00
2022-09-15T05:41:21.895Z,100.00
2022-09-15T05:46:34.941Z,100.00
2022-09-15T05:51:48.647Z,100.00
2022-09-15T05:57:03.184Z,100.00
2022-09-15T06:02:23.889Z,100.00
2022-09-15T06:13:18.758Z,100.00
2022-09-15T06:18:23.447Z,100.00
2022-09-15T06:23:34.206Z,100.00
2022-09-15T06:28:43.420Z,100.00
2022-09-15T06:33:52.923Z,100.00
2022-09-15T06:39:01.497Z,100.00
2022-09-15T06:44:10.892Z,100.00
2022-09-15T06:49:17.589Z,100.00
2022-09-15T06:54:23.597Z,100.00
2022-09-15T06:59:43.348Z,100.00
2022-09-15T07:04:53.970Z,100.00
2022-09-15T07:10:25.634Z,100.00
2022-09-15T07:15:58.637Z,100.00
2022-09-15T07:21:05.200Z,100.00
2022-09-15T07:26:17.509Z,100.00
2022-09-15T07:31:33.731Z,100.00
2022-09-15T07:36:40.827Z,100.00
2022-09-15T07:41:56.719Z,100.00
2022-09-15T07:47:18.555Z,100.00
2022-09-15T07:52:29.732Z,100.00
2022-09-15T07:57:38.754Z,100.00
2022-09-15T08:02:54.191Z,100.00
2022-09-15T08:08:00.184Z,100.00
2022-09-15T08:13:15.721Z,100.00
2022-09-15T08:18:39.363Z,100.00
2022-09-15T08:23:51.336Z,100.00
2022-09-15T08:29:17.923Z,100.00
2022-09-15T08:34:57.226Z,100.00
2022-09-15T08:40:19.583Z,100.00
2022-09-15T08:45:31.608Z,100.00
2022-09-15T08:50:58.109Z,98.00
2022-09-15T08:56:18.684Z,98.22
2022-09-15T09:02:11.628Z,95.01
2022-09-15T09:07:53.029Z,95.28
2022-09-15T09:13:11.736Z,95.21
2022-09-15T09:18:35.050Z,95.78
2022-09-15T09:24:03.521Z,95.13
2022-09-15T09:29:27.971Z,95.52
2022-09-15T09:34:40.491Z,94.53
2022-09-15T09:40:16.090Z,93.59
2022-09-15T09:45:25.637Z,92.45
2022-09-15T09:50:53.647Z,90.95
2022-09-15T09:56:39.342Z,89.78
2022-09-15T10:02:16.362Z,88.79
2022-09-15T10:07:25.442Z,85.60
2022-09-15T10:12:36.574Z,84.48
2022-09-15T10:17:49.001Z,82.37
2022-09-15T10:22:56.269Z,81.04
2022-09-15T10:28:21.738Z,77.96
2022-09-15T10:33:31.121Z,77.32
2022-09-15T10:38:52.264Z,75.63
2022-09-15T10:44:25.897Z,78.05
2022-09-15T10:49:53.158Z,79.26
2022-09-15T10:55:36.793Z,80.75
2022-09-15T11:00:52.862Z,81.03
2022-09-15T11:06:31.397Z,83.96
2022-09-15T11:11:47.828Z,83.70
2022-09-15T11:17:16.260Z,84.04
2022-09-15T11:22:26.806Z,84.99
2022-09-15T11:27:36.835Z,85.54
2022-09-15T11:32:52.974Z,86.91
2022-09-15T11:38:18.130Z,87.71
2022-09-15T11:43:37.749Z,87.40
2022-09-15T11:49:03.625Z,86.80
2022-09-15T11:54:28.172Z,85.73
2022-09-15T11:59:47.345Z,84.47
2022-09-15T12:05:28.750Z,83.06
2022-09-15T12:10:45.060Z,81.84
2022-09-15T12:16:04.156Z,82.00
2022-09-15T12:21:30.337Z,81.13
2022-09-15T12:26:41.844Z,80.69
2022-09-15T12:32:25.476Z,78.29
2022-09-15T12:37:44.053Z,76.97
2022-09-15T12:42:50.406Z,74.92
2022-09-15T12:48:05.390Z,75.39
2022-09-15T12:53:40.851Z,71.36
2022-09-15T12:58:57.932Z,75.09
2022-09-15T13:04:43.935Z,72.22
2022-09-15T13:10:00.374Z,74.01
2022-09-15T13:15:14.335Z,72.56
2022-09-15T13:20:32.039Z,76.25
2022-09-15T13:25:44.441Z,75.79
2022-09-15T13:31:08.757Z,79.17
2022-09-15T13:38:03.794Z,77.25
2022-09-15T13:42:25.164Z,79.71
2022-09-15T13:48:08.684Z,80.70
2022-09-15T13:53:38.004Z,80.00
2022-09-15T13:58:56.122Z,79.52
2022-09-15T14:04:10.124Z,80.49
2022-09-15T14:09:21.679Z,80.73
2022-09-15T14:14:40.631Z,75.11
2022-09-15T14:19:54.739Z,74.92
2022-09-15T14:25:07.337Z,73.44
2022-09-15T14:30:30.213Z,70.85
2022-09-15T14:35:53.883Z,76.82
2022-09-15T14:41:06.328Z,75.33
2022-09-15T14:51:56.974Z,72.42
2022-09-15T14:57:09.485Z,70.32
2022-09-15T15:02:25.515Z,68.38
2022-09-15T15:07:40.991Z,68.65
2022-09-15T15:12:52.193Z,67.49
2022-09-15T15:17:59.197Z,68.65
2022-09-15T15:23:23.638Z,65.43
2022-09-15T15:28:43.158Z,66.96
2022-09-15T15:33:57.524Z,65.92
2022-09-15T15:39:12.920Z,64.60
2022-09-15T15:44:43.770Z,66.13
2022-09-15T15:50:13.262Z,67.35
2022-09-15T15:55:26.551Z,68.02
2022-09-15T16:00:35.247Z,67.85
2022-09-15T16:05:45.903Z,68.68
2022-09-15T16:11:11.276Z,69.86
2022-09-15T16:16:20.411Z,67.73
2022-09-15T16:21:37.128Z,69.75
2022-09-15T16:26:53.976Z,71.59
2022-09-15T16:32:05.324Z,70.24
2022-09-15T16:37:19.518Z,69.16
2022-09-15T16:42:30.963Z,70.55
2022-09-15T16:47:53.505Z,71.20
2022-09-15T16:53:10.920Z,72.39
2022-09-15T16:58:35.374Z,73.36
2022-09-15T17:03:40.503Z,73.57
2022-09-15T17:08:50.363Z,74.73
2022-09-15T17:14:15.764Z,74.08
2022-09-15T17:19:25.586Z,71.68
2022-09-15T17:24:39.082Z,71.04
2022-09-15T17:29:57.253Z,70.99
2022-09-15T17:35:06.808Z,72.13
2022-09-15T17:40:17.942Z,74.23
2022-09-15T17:45:54.999Z,73.89
2022-09-15T17:51:13.006Z,74.97
2022-09-15T17:56:23.124Z,75.41
2022-09-15T18:01:34.789Z,74.65
2022-09-15T18:06:46.272Z,74.17
2022-09-15T18:12:17.291Z,73.99
2022-09-15T18:17:27.072Z,75.22
2022-09-15T18:22:34.420Z,75.26
2022-09-15T18:27:39.065Z,75.86
2022-09-15T18:32:45.350Z,77.27
2022-09-15T18:38:10.978Z,77.01
2022-09-15T18:43:16.592Z,76.25
2022-09-15T18:48:22.871Z,75.68
2022-09-15T18:53:28.306Z,76.10
2022-09-15T18:58:36.329Z,76.68
2022-09-15T19:03:44.448Z,77.56
2022-09-15T19:09:00.151Z,76.39
2022-09-15T19:14:13.146Z,76.66
2022-09-15T19:19:25.727Z,77.30
2022-09-15T19:24:32.208Z,76.73
2022-09-15T19:29:48.352Z,77.24
2022-09-15T19:35:13.397Z,77.86
2022-09-15T19:40:24.939Z,78.78
2022-09-15T19:45:44.836Z,78.42
2022-09-15T19:50:58.543Z,78.20
2022-09-15T19:56:12.203Z,78.25
2022-09-15T20:01:38.184Z,78.19
2022-09-15T20:06:49.639Z,79.58
2022-09-15T20:12:02.961Z,79.44
2022-09-15T20:17:09.388Z,80.07
2022-09-15T20:22:17.095Z,80.07
2022-09-15T20:27:35.062Z,79.35
2022-09-15T20:32:45.630Z,77.86
2022-09-15T20:38:02.341Z,77.28
2022-09-15T20:43:10.145Z,77.11
2022-09-15T20:48:42.861Z,77.31
2022-09-15T20:54:16.364Z,77.45
2022-09-15T20:59:27.095Z,76.81
2022-09-15T21:04:38.115Z,77.37
2022-09-15T21:09:52.307Z,78.88
2022-09-15T21:15:07.422Z,78.50
2022-09-15T21:20:31.744Z,78.62
2022-09-15T21:26:05.744Z,79.47
2022-09-15T21:31:17.129Z,81.13
2022-09-15T21:36:28.975Z,84.81
2022-09-15T21:41:41.875Z,88.18
2022-09-15T21:46:53.364Z,89.70
2022-09-15T21:52:00.482Z,91.37
2022-09-15T21:57:18.671Z,93.12
2022-09-15T22:07:51.051Z,95.10
2022-09-15T22:13:03.062Z,95.68
2022-09-15T22:18:10.157Z,96.63
2022-09-15T22:23:32.284Z,97.16
2022-09-15T22:28:50.742Z,99.38
2022-09-15T22:34:00.925Z,98.74
2022-09-15T22:39:14.907Z,99.24
2022-09-15T22:44:32.758Z,99.62
2022-09-15T22:49:48.233Z,100.00
2022-09-15T22:54:58.363Z,100.00
2022-09-15T23:00:16.422Z,100.00
2022-09-15T23:05:24.977Z,100.00
2022-09-15T23:10:32.138Z,100.00
2022-09-15T23:15:47.841Z,100.00
2022-09-15T23:20:59.266Z,100.00
2022-09-15T23:26:09.775Z,100.00
2022-09-15T23:31:24.451Z,100.00
2022-09-15T23:36:30.122Z,100.00
2022-09-15T23:41:41.424Z,100.00
2022-09-15T23:47:09.651Z,100.00
2022-09-15T23:52:26.717Z,100.00
2022-09-15T23:57:44.239Z,100.00
